sensor_id;sensor_type;location;lat;lon;timestamp;P1;durP1;ratioP1;P2;durP2;ratioP2
20908;SDS011;10614;53.198;6.570;2023-08-07T02:25:47;12.35;;;4.85;;
20908;SDS011;10614;53.198;6.570;2023-08-07T02:27:49;19.27;;;5.50;;
20908;SDS011;10614;53.198;6.570;2023-08-07T02:29:51;9.55;;;4.78;;
20908;SDS011;10614;53.198;6.570;2023-08-07T02:31:54;10.90;;;5.25;;
20908;SDS011;10614;53.198;6.570;2023-08-07T02:33:56;15.18;;;5.28;;
20908;SDS011;10614;53.198;6.570;2023-08-07T02:35:58;14.82;;;5.88;;
20908;SDS011;10614;53.198;6.570;2023-08-07T02:38:00;14.80;;;5.07;;
20908;SDS011;10614;53.198;6.570;2023-08-07T02:40:02;16.30;;;5.35;;
20908;SDS011;10614;53.198;6.570;2023-08-07T02:42:06;17.88;;;5.47;;
20908;SDS011;10614;53.198;6.570;2023-08-07T02:44:08;18.67;;;5.15;;
20908;SDS011;10614;53.198;6.570;2023-08-07T02:46:10;18.80;;;5.57;;
20908;SDS011;10614;53.198;6.570;2023-08-07T02:48:11;18.67;;;5.45;;
20908;SDS011;10614;53.198;6.570;2023-08-07T02:50:14;13.40;;;4.80;;
20908;SDS011;10614;53.198;6.570;2023-08-07T02:52:15;14.75;;;5.93;;
20908;SDS011;10614;53.198;6.570;2023-08-07T02:54:17;18.30;;;5.45;;
20908;SDS011;10614;53.198;6.570;2023-08-07T02:56:19;20.83;;;5.82;;
20908;SDS011;10614;53.198;6.570;2023-08-07T02:58:21;14.68;;;5.18;;
20908;SDS011;10614;53.198;6.570;2023-08-07T03:00:23;16.30;;;6.13;;
20908;SDS011;10614;53.198;6.570;2023-08-07T03:02:24;16.75;;;5.75;;
20908;SDS011;10614;53.198;6.570;2023-08-07T03:04:26;18.08;;;5.78;;
20908;SDS011;10614;53.198;6.570;2023-08-07T03:06:28;15.38;;;5.57;;
20908;SDS011;10614;53.198;6.570;2023-08-07T03:08:30;14.32;;;5.50;;
20908;SDS011;10614;53.198;6.570;2023-08-07T03:10:33;15.20;;;5.53;;
20908;SDS011;10614;53.198;6.570;2023-08-07T03:12:34;13.35;;;5.90;;
20908;SDS011;10614;53.198;6.570;2023-08-07T03:14:39;14.10;;;5.95;;
20908;SDS011;10614;53.198;6.570;2023-08-07T03:16:40;18.77;;;7.03;;
20908;SDS011;10614;53.198;6.570;2023-08-07T03:18:42;16.27;;;6.80;;
20908;SDS011;10614;53.198;6.570;2023-08-07T03:20:44;18.08;;;7.35;;
20908;SDS011;10614;53.198;6.570;2023-08-07T03:22:45;19.08;;;7.05;;
20908;SDS011;10614;53.198;6.570;2023-08-07T03:24:47;16.38;;;7.38;;
20908;SDS011;10614;53.198;6.570;2023-08-07T03:26:49;19.58;;;7.45;;
20908;SDS011;10614;53.198;6.570;2023-08-07T03:28:51;19.55;;;6.97;;
20908;SDS011;10614;53.198;6.570;2023-08-07T03:30:53;20.55;;;6.95;;
20908;SDS011;10614;53.198;6.570;2023-08-07T03:32:55;19.48;;;6.68;;
20908;SDS011;10614;53.198;6.570;2023-08-07T03:34:57;14.52;;;6.63;;
20908;SDS011;10614;53.198;6.570;2023-08-07T03:36:59;18.40;;;6.20;;
20908;SDS011;10614;53.198;6.570;2023-08-07T03:39:01;15.88;;;5.57;;
20908;SDS011;10614;53.198;6.570;2023-08-07T03:41:03;17.20;;;6.05;;
20908;SDS011;10614;53.198;6.570;2023-08-07T03:43:05;13.07;;;5.60;;
20908;SDS011;10614;53.198;6.570;2023-08-07T03:45:06;20.27;;;6.18;;
20908;SDS011;10614;53.198;6.570;2023-08-07T03:47:10;23.50;;;5.30;;
20908;SDS011;10614;53.198;6.570;2023-08-07T03:49:12;17.65;;;5.50;;
20908;SDS011;10614;53.198;6.570;2023-08-07T03:51:14;22.20;;;5.68;;
20908;SDS011;10614;53.198;6.570;2023-08-07T03:53:16;14.93;;;5.65;;
20908;SDS011;10614;53.198;6.570;2023-08-07T03:55:18;11.32;;;4.82;;
20908;SDS011;10614;53.198;6.570;2023-08-07T03:57:20;18.58;;;5.63;;
20908;SDS011;10614;53.198;6.570;2023-08-07T03:59:22;11.20;;;4.60;;
20908;SDS011;10614;53.198;6.570;2023-08-07T04:01:23;13.93;;;4.70;;
20908;SDS011;10614;53.198;6.570;2023-08-07T04:03:27;11.73;;;5.43;;
20908;SDS011;10614;53.198;6.570;2023-08-07T04:05:29;17.10;;;5.55;;
20908;SDS011;10614;53.198;6.570;2023-08-07T04:07:34;20.13;;;6.45;;
20908;SDS011;10614;53.198;6.570;2023-08-07T04:09:36;15.73;;;6.22;;
20908;SDS011;10614;53.198;6.570;2023-08-07T04:11:38;16.77;;;6.25;;
20908;SDS011;10614;53.198;6.570;2023-08-07T04:13:41;17.40;;;6.43;;
20908;SDS011;10614;53.198;6.570;2023-08-07T04:15:43;27.98;;;6.88;;
20908;SDS011;10614;53.198;6.570;2023-08-07T04:17:45;25.80;;;7.03;;
20908;SDS011;10614;53.198;6.570;2023-08-07T04:19:49;21.73;;;7.20;;
20908;SDS011;10614;53.198;6.570;2023-08-07T04:21:51;32.67;;;9.13;;
20908;SDS011;10614;53.198;6.570;2023-08-07T04:23:53;22.58;;;6.57;;
20908;SDS011;10614;53.198;6.570;2023-08-07T04:25:55;21.10;;;7.03;;
20908;SDS011;10614;53.198;6.570;2023-08-07T04:27:56;23.27;;;6.85;;
20908;SDS011;10614;53.198;6.570;2023-08-07T04:29:58;20.65;;;6.70;;
20908;SDS011;10614;53.198;6.570;2023-08-07T04:32:00;22.42;;;7.07;;
20908;SDS011;10614;53.198;6.570;2023-08-07T04:34:03;22.55;;;6.68;;
20908;SDS011;10614;53.198;6.570;2023-08-07T04:36:06;26.52;;;7.25;;
20908;SDS011;10614;53.198;6.570;2023-08-07T04:38:08;25.20;;;6.85;;
20908;SDS011;10614;53.198;6.570;2023-08-07T04:40:09;21.02;;;6.88;;
20908;SDS011;10614;53.198;6.570;2023-08-07T04:42:12;24.05;;;6.93;;
20908;SDS011;10614;53.198;6.570;2023-08-07T04:44:14;26.90;;;6.75;;
20908;SDS011;10614;53.198;6.570;2023-08-07T04:46:16;27.98;;;7.55;;
20908;SDS011;10614;53.198;6.570;2023-08-07T04:48:20;20.40;;;6.78;;
20908;SDS011;10614;53.198;6.570;2023-08-07T04:50:25;26.80;;;7.22;;
20908;SDS011;10614;53.198;6.570;2023-08-07T04:52:28;21.58;;;6.57;;
20908;SDS011;10614;53.198;6.570;2023-08-07T04:54:30;18.73;;;5.90;;
20908;SDS011;10614;53.198;6.570;2023-08-07T04:56:32;26.63;;;6.05;;
20908;SDS011;10614;53.198;6.570;2023-08-07T04:58:36;20.40;;;6.47;;
20908;SDS011;10614;53.198;6.570;2023-08-07T05:00:38;21.98;;;6.55;;
20908;SDS011;10614;53.198;6.570;2023-08-07T05:02:40;27.30;;;6.95;;
20908;SDS011;10614;53.198;6.570;2023-08-07T05:04:42;28.45;;;7.22;;
20908;SDS011;10614;53.198;6.570;2023-08-07T05:06:44;30.23;;;6.22;;
20908;SDS011;10614;53.198;6.570;2023-08-07T05:08:47;20.63;;;5.82;;
20908;SDS011;10614;53.198;6.570;2023-08-07T05:10:49;22.30;;;5.65;;
20908;SDS011;10614;53.198;6.570;2023-08-07T05:12:51;21.33;;;5.38;;
20908;SDS011;10614;53.198;6.570;2023-08-07T05:14:55;21.50;;;6.00;;
20908;SDS011;10614;53.198;6.570;2023-08-07T05:16:57;20.77;;;5.72;;
20908;SDS011;10614;53.198;6.570;2023-08-07T05:18:59;20.20;;;5.28;;
20908;SDS011;10614;53.198;6.570;2023-08-07T05:21:02;20.70;;;5.55;;
20908;SDS011;10614;53.198;6.570;2023-08-07T05:23:04;19.48;;;6.03;;
20908;SDS011;10614;53.198;6.570;2023-08-07T05:25:08;17.92;;;5.88;;
20908;SDS011;10614;53.198;6.570;2023-08-07T05:27:15;30.92;;;6.32;;
20908;SDS011;10614;53.198;6.570;2023-08-07T05:29:17;30.52;;;6.03;;
20908;SDS011;10614;53.198;6.570;2023-08-07T05:31:18;24.15;;;5.82;;
20908;SDS011;10614;53.198;6.570;2023-08-07T05:33:20;22.02;;;6.03;;
20908;SDS011;10614;53.198;6.570;2023-08-07T05:35:21;22.13;;;6.25;;
20908;SDS011;10614;53.198;6.570;2023-08-07T05:37:26;22.25;;;5.88;;
20908;SDS011;10614;53.198;6.570;2023-08-07T05:39:29;19.98;;;5.57;;
20908;SDS011;10614;53.198;6.570;2023-08-07T05:41:34;26.38;;;5.85;;
20908;SDS011;10614;53.198;6.570;2023-08-07T05:43:38;20.20;;;5.28;;
20908;SDS011;10614;53.198;6.570;2023-08-07T05:45:40;16.23;;;5.53;;
20908;SDS011;10614;53.198;6.570;2023-08-07T05:47:43;17.38;;;5.32;;
20908;SDS011;10614;53.198;6.570;2023-08-07T05:49:44;15.07;;;4.97;;
20908;SDS011;10614;53.198;6.570;2023-08-07T05:51:46;22.38;;;5.70;;
20908;SDS011;10614;53.198;6.570;2023-08-07T05:53:48;17.50;;;4.47;;
20908;SDS011;10614;53.198;6.570;2023-08-07T05:55:50;16.38;;;5.07;;
20908;SDS011;10614;53.198;6.570;2023-08-07T05:57:54;16.38;;;4.13;;
20908;SDS011;10614;53.198;6.570;2023-08-07T05:59:56;17.92;;;4.00;;
20908;SDS011;10614;53.198;6.570;2023-08-07T06:01:57;18.23;;;4.40;;
20908;SDS011;10614;53.198;6.570;2023-08-07T06:03:59;15.82;;;3.90;;
20908;SDS011;10614;53.198;6.570;2023-08-07T06:06:01;14.25;;;4.45;;
20908;SDS011;10614;53.198;6.570;2023-08-07T06:08:03;21.02;;;4.15;;
20908;SDS011;10614;53.198;6.570;2023-08-07T06:10:06;14.70;;;4.22;;
20908;SDS011;10614;53.198;6.570;2023-08-07T06:12:08;15.05;;;3.90;;
20908;SDS011;10614;53.198;6.570;2023-08-07T06:14:11;18.10;;;4.22;;
20908;SDS011;10614;53.198;6.570;2023-08-07T06:16:16;17.55;;;5.00;;
20908;SDS011;10614;53.198;6.570;2023-08-07T06:18:20;15.73;;;6.50;;
20908;SDS011;10614;53.198;6.570;2023-08-07T06:20:22;18.00;;;4.45;;
20908;SDS011;10614;53.198;6.570;2023-08-07T06:22:24;18.25;;;4.55;;
20908;SDS011;10614;53.198;6.570;2023-08-07T06:24:24;15.88;;;3.67;;
20908;SDS011;10614;53.198;6.570;2023-08-07T06:26:27;12.52;;;4.00;;
20908;SDS011;10614;53.198;6.570;2023-08-07T06:28:29;13.70;;;3.58;;
20908;SDS011;10614;53.198;6.570;2023-08-07T06:30:32;16.50;;;3.63;;
20908;SDS011;10614;53.198;6.570;2023-08-07T06:32:34;12.82;;;3.05;;
20908;SDS011;10614;53.198;6.570;2023-08-07T06:34:36;17.88;;;3.60;;
20908;SDS011;10614;53.198;6.570;2023-08-07T06:36:39;17.75;;;3.75;;
20908;SDS011;10614;53.198;6.570;2023-08-07T06:38:40;18.73;;;4.15;;
20908;SDS011;10614;53.198;6.570;2023-08-07T06:40:42;15.98;;;4.07;;
20908;SDS011;10614;53.198;6.570;2023-08-07T06:42:46;13.07;;;3.97;;
20908;SDS011;10614;53.198;6.570;2023-08-07T06:44:47;15.10;;;3.20;;
20908;SDS011;10614;53.198;6.570;2023-08-07T06:46:51;9.48;;;2.53;;
20908;SDS011;10614;53.198;6.570;2023-08-07T06:48:53;9.65;;;3.15;;
20908;SDS011;10614;53.198;6.570;2023-08-07T06:50:55;13.77;;;3.65;;
20908;SDS011;10614;53.198;6.570;2023-08-07T06:52:58;12.35;;;3.38;;
20908;SDS011;10614;53.198;6.570;2023-08-07T06:55:00;16.15;;;4.22;;
20908;SDS011;10614;53.198;6.570;2023-08-07T06:57:02;16.85;;;3.97;;
20908;SDS011;10614;53.198;6.570;2023-08-07T06:59:05;17.67;;;3.67;;
20908;SDS011;10614;53.198;6.570;2023-08-07T07:01:07;15.90;;;3.70;;
20908;SDS011;10614;53.198;6.570;2023-08-07T07:03:12;17.67;;;4.07;;
20908;SDS011;10614;53.198;6.570;2023-08-07T07:05:14;11.43;;;3.30;;
20908;SDS011;10614;53.198;6.570;2023-08-07T07:07:16;12.15;;;3.55;;
20908;SDS011;10614;53.198;6.570;2023-08-07T07:09:19;14.55;;;3.47;;
20908;SDS011;10614;53.198;6.570;2023-08-07T07:11:21;14.48;;;3.95;;
20908;SDS011;10614;53.198;6.570;2023-08-07T07:13:24;15.65;;;3.67;;
20908;SDS011;10614;53.198;6.570;2023-08-07T07:15:26;16.30;;;4.25;;
20908;SDS011;10614;53.198;6.570;2023-08-07T07:17:29;18.63;;;4.10;;
20908;SDS011;10614;53.198;6.570;2023-08-07T07:19:33;18.48;;;4.55;;
20908;SDS011;10614;53.198;6.570;2023-08-07T07:21:35;16.15;;;4.38;;
20908;SDS011;10614;53.198;6.570;2023-08-07T07:23:37;17.50;;;4.57;;
20908;SDS011;10614;53.198;6.570;2023-08-07T07:25:39;20.70;;;4.32;;
20908;SDS011;10614;53.198;6.570;2023-08-07T07:27:41;17.95;;;4.78;;
20908;SDS011;10614;53.198;6.570;2023-08-07T07:29:42;16.75;;;4.45;;
20908;SDS011;10614;53.198;6.570;2023-08-07T07:31:44;19.15;;;4.75;;
20908;SDS011;10614;53.198;6.570;2023-08-07T07:33:48;15.60;;;4.88;;
20908;SDS011;10614;53.198;6.570;2023-08-07T07:35:50;15.60;;;4.43;;
20908;SDS011;10614;53.198;6.570;2023-08-07T07:37:54;13.52;;;3.92;;
20908;SDS011;10614;53.198;6.570;2023-08-07T07:39:56;17.45;;;4.75;;
20908;SDS011;10614;53.198;6.570;2023-08-07T07:41:58;19.33;;;4.30;;
20908;SDS011;10614;53.198;6.570;2023-08-07T07:44:00;17.75;;;4.25;;
20908;SDS011;10614;53.198;6.570;2023-08-07T07:46:03;16.67;;;3.92;;
20908;SDS011;10614;53.198;6.570;2023-08-07T07:48:04;18.05;;;4.78;;
20908;SDS011;10614;53.198;6.570;2023-08-07T07:50:08;12.60;;;3.92;;
20908;SDS011;10614;53.198;6.570;2023-08-07T07:52:14;13.23;;;4.07;;
20908;SDS011;10614;53.198;6.570;2023-08-07T07:54:16;14.30;;;3.97;;
20908;SDS011;10614;53.198;6.570;2023-08-07T07:56:18;14.43;;;4.45;;
20908;SDS011;10614;53.198;6.570;2023-08-07T07:58:20;12.27;;;4.20;;
20908;SDS011;10614;53.198;6.570;2023-08-07T08:00:22;18.30;;;4.38;;
20908;SDS011;10614;53.198;6.570;2023-08-07T08:02:26;16.17;;;4.57;;
20908;SDS011;10614;53.198;6.570;2023-08-07T08:04:28;19.70;;;4.50;;
20908;SDS011;10614;53.198;6.570;2023-08-07T08:06:32;13.38;;;4.68;;
20908;SDS011;10614;53.198;6.570;2023-08-07T08:08:36;19.58;;;5.70;;
20908;SDS011;10614;53.198;6.570;2023-08-07T08:10:37;19.15;;;5.60;;
20908;SDS011;10614;53.198;6.570;2023-08-07T08:12:38;19.05;;;5.85;;
20908;SDS011;10614;53.198;6.570;2023-08-07T08:14:40;19.25;;;5.45;;
20908;SDS011;10614;53.198;6.570;2023-08-07T08:16:42;16.77;;;6.15;;
20908;SDS011;10614;53.198;6.570;2023-08-07T08:18:44;17.40;;;5.57;;
20908;SDS011;10614;53.198;6.570;2023-08-07T08:20:47;20.67;;;6.35;;
20908;SDS011;10614;53.198;6.570;2023-08-07T08:22:49;21.67;;;6.55;;
20908;SDS011;10614;53.198;6.570;2023-08-07T08:24:51;19.88;;;5.68;;
20908;SDS011;10614;53.198;6.570;2023-08-07T08:26:53;17.08;;;5.03;;
20908;SDS011;10614;53.198;6.570;2023-08-07T08:28:55;20.95;;;5.57;;
20908;SDS011;10614;53.198;6.570;2023-08-07T08:30:57;17.23;;;5.60;;
20908;SDS011;10614;53.198;6.570;2023-08-07T08:32:59;18.77;;;4.88;;
20908;SDS011;10614;53.198;6.570;2023-08-07T08:35:01;21.35;;;5.72;;
20908;SDS011;10614;53.198;6.570;2023-08-07T08:37:04;22.40;;;5.50;;
20908;SDS011;10614;53.198;6.570;2023-08-07T08:39:08;15.73;;;5.70;;
20908;SDS011;10614;53.198;6.570;2023-08-07T08:41:11;18.60;;;5.03;;
20908;SDS011;10614;53.198;6.570;2023-08-07T08:43:13;20.40;;;5.35;;
20908;SDS011;10614;53.198;6.570;2023-08-07T08:45:15;18.05;;;5.20;;
20908;SDS011;10614;53.198;6.570;2023-08-07T08:47:16;21.08;;;5.10;;
20908;SDS011;10614;53.198;6.570;2023-08-07T08:49:19;18.75;;;4.35;;
20908;SDS011;10614;53.198;6.570;2023-08-07T08:51:29;15.13;;;4.32;;
20908;SDS011;10614;53.198;6.570;2023-08-07T08:53:32;14.82;;;4.18;;
20908;SDS011;10614;53.198;6.570;2023-08-07T08:55:34;12.05;;;3.40;;
20908;SDS011;10614;53.198;6.570;2023-08-07T08:57:38;17.63;;;4.05;;
20908;SDS011;10614;53.198;6.570;2023-08-07T08:59:41;15.57;;;3.60;;
20908;SDS011;10614;53.198;6.570;2023-08-07T09:01:43;14.02;;;3.63;;
20908;SDS011;10614;53.198;6.570;2023-08-07T09:03:46;11.50;;;3.75;;
20908;SDS011;10614;53.198;6.570;2023-08-07T09:05:48;10.38;;;3.33;;
20908;SDS011;10614;53.198;6.570;2023-08-07T09:07:53;13.50;;;3.85;;
20908;SDS011;10614;53.198;6.570;2023-08-07T09:09:56;14.43;;;3.78;;
20908;SDS011;10614;53.198;6.570;2023-08-07T09:11:59;10.48;;;3.20;;
20908;SDS011;10614;53.198;6.570;2023-08-07T09:14:03;11.77;;;3.33;;
20908;SDS011;10614;53.198;6.570;2023-08-07T09:16:05;13.02;;;3.13;;
20908;SDS011;10614;53.198;6.570;2023-08-07T09:18:09;7.93;;;2.78;;
20908;SDS011;10614;53.198;6.570;2023-08-07T09:20:11;19.77;;;3.40;;
20908;SDS011;10614;53.198;6.570;2023-08-07T09:22:13;13.60;;;3.30;;
20908;SDS011;10614;53.198;6.570;2023-08-07T09:24:18;11.02;;;3.05;;
20908;SDS011;10614;53.198;6.570;2023-08-07T09:26:22;9.10;;;2.75;;
20908;SDS011;10614;53.198;6.570;2023-08-07T09:28:25;15.60;;;3.17;;
20908;SDS011;10614;53.198;6.570;2023-08-07T09:30:29;15.15;;;3.28;;
20908;SDS011;10614;53.198;6.570;2023-08-07T09:32:31;12.20;;;3.33;;
20908;SDS011;10614;53.198;6.570;2023-08-07T09:34:33;15.70;;;3.65;;
20908;SDS011;10614;53.198;6.570;2023-08-07T09:36:35;16.70;;;3.92;;
20908;SDS011;10614;53.198;6.570;2023-08-07T09:38:37;15.63;;;3.40;;
20908;SDS011;10614;53.198;6.570;2023-08-07T09:40:39;9.30;;;3.00;;
20908;SDS011;10614;53.198;6.570;2023-08-07T09:42:40;16.58;;;3.50;;
20908;SDS011;10614;53.198;6.570;2023-08-07T09:44:43;14.10;;;3.45;;
20908;SDS011;10614;53.198;6.570;2023-08-07T09:46:48;16.05;;;3.80;;
20908;SDS011;10614;53.198;6.570;2023-08-07T09:48:50;10.55;;;3.20;;
20908;SDS011;10614;53.198;6.570;2023-08-07T09:50:50;11.32;;;3.25;;
20908;SDS011;10614;53.198;6.570;2023-08-07T09:52:53;15.45;;;2.95;;
20908;SDS011;10614;53.198;6.570;2023-08-07T09:54:56;12.93;;;2.92;;
20908;SDS011;10614;53.198;6.570;2023-08-07T09:56:59;12.95;;;3.47;;
20908;SDS011;10614;53.198;6.570;2023-08-07T09:59:02;16.60;;;3.03;;
20908;SDS011;10614;53.198;6.570;2023-08-07T10:01:05;14.93;;;3.42;;
20908;SDS011;10614;53.198;6.570;2023-08-07T10:03:11;12.93;;;3.13;;
20908;SDS011;10614;53.198;6.570;2023-08-07T10:05:13;13.02;;;3.35;;
20908;SDS011;10614;53.198;6.570;2023-08-07T10:07:14;13.73;;;3.20;;
20908;SDS011;10614;53.198;6.570;2023-08-07T10:09:17;21.25;;;3.80;;
20908;SDS011;10614;53.198;6.570;2023-08-07T10:11:18;14.43;;;3.63;;
20908;SDS011;10614;53.198;6.570;2023-08-07T10:13:22;15.98;;;3.78;;
20908;SDS011;10614;53.198;6.570;2023-08-07T10:15:23;15.20;;;3.45;;
20908;SDS011;10614;53.198;6.570;2023-08-07T10:17:26;16.83;;;3.47;;
20908;SDS011;10614;53.198;6.570;2023-08-07T10:19:30;14.85;;;3.67;;
20908;SDS011;10614;53.198;6.570;2023-08-07T10:21:34;10.82;;;3.35;;
20908;SDS011;10614;53.198;6.570;2023-08-07T10:23:37;13.73;;;3.85;;
20908;SDS011;10614;53.198;6.570;2023-08-07T10:25:41;17.95;;;2.97;;
20908;SDS011;10614;53.198;6.570;2023-08-07T10:27:47;13.55;;;3.58;;
20908;SDS011;10614;53.198;6.570;2023-08-07T10:29:51;16.52;;;3.63;;
20908;SDS011;10614;53.198;6.570;2023-08-07T10:31:58;15.07;;;3.95;;
20908;SDS011;10614;53.198;6.570;2023-08-07T10:34:01;11.68;;;3.70;;
20908;SDS011;10614;53.198;6.570;2023-08-07T10:36:09;13.13;;;3.30;;
20908;SDS011;10614;53.198;6.570;2023-08-07T10:38:12;12.90;;;3.75;;
20908;SDS011;10614;53.198;6.570;2023-08-07T10:40:16;12.10;;;3.25;;
20908;SDS011;10614;53.198;6.570;2023-08-07T10:42:20;14.00;;;3.63;;
20908;SDS011;10614;53.198;6.570;2023-08-07T10:44:22;15.43;;;3.20;;
20908;SDS011;10614;53.198;6.570;2023-08-07T10:46:25;9.40;;;2.95;;
20908;SDS011;10614;53.198;6.570;2023-08-07T10:48:28;10.73;;;2.90;;
20908;SDS011;10614;53.198;6.570;2023-08-07T10:50:30;13.63;;;3.20;;
20908;SDS011;10614;53.198;6.570;2023-08-07T10:52:35;10.38;;;2.78;;
20908;SDS011;10614;53.198;6.570;2023-08-07T10:54:44;10.10;;;2.50;;
20908;SDS011;10614;53.198;6.570;2023-08-07T10:56:51;13.50;;;2.25;;
20908;SDS011;10614;53.198;6.570;2023-08-07T10:58:54;8.05;;;2.15;;
20908;SDS011;10614;53.198;6.570;2023-08-07T11:03:26;8.93;;;2.28;;
20908;SDS011;10614;53.198;6.570;2023-08-07T11:05:28;14.18;;;2.72;;
20908;SDS011;10614;53.198;6.570;2023-08-07T11:07:31;11.13;;;2.47;;
20908;SDS011;10614;53.198;6.570;2023-08-07T11:09:34;14.32;;;2.80;;
20908;SDS011;10614;53.198;6.570;2023-08-07T11:11:36;12.07;;;3.15;;
20908;SDS011;10614;53.198;6.570;2023-08-07T11:13:40;9.05;;;2.78;;
20908;SDS011;10614;53.198;6.570;2023-08-07T11:15:41;13.15;;;2.85;;
20908;SDS011;10614;53.198;6.570;2023-08-07T11:17:45;10.20;;;2.70;;
20908;SDS011;10614;53.198;6.570;2023-08-07T11:19:47;11.40;;;2.70;;
20908;SDS011;10614;53.198;6.570;2023-08-07T11:21:49;10.35;;;2.92;;
20908;SDS011;10614;53.198;6.570;2023-08-07T11:23:52;12.43;;;2.90;;
20908;SDS011;10614;53.198;6.570;2023-08-07T11:25:54;10.95;;;3.10;;
20908;SDS011;10614;53.198;6.570;2023-08-07T11:27:56;13.15;;;3.00;;
20908;SDS011;10614;53.198;6.570;2023-08-07T11:29:59;16.77;;;3.25;;
20908;SDS011;10614;53.198;6.570;2023-08-07T11:32:01;11.05;;;2.90;;
20908;SDS011;10614;53.198;6.570;2023-08-07T11:34:05;13.50;;;3.47;;
20908;SDS011;10614;53.198;6.570;2023-08-07T11:36:11;11.32;;;3.30;;
20908;SDS011;10614;53.198;6.570;2023-08-07T11:38:15;13.23;;;3.13;;
20908;SDS011;10614;53.198;6.570;2023-08-07T11:40:29;13.90;;;3.55;;
20908;SDS011;10614;53.198;6.570;2023-08-07T11:42:33;10.88;;;2.90;;
20908;SDS011;10614;53.198;6.570;2023-08-07T11:44:34;10.55;;;3.22;;
20908;SDS011;10614;53.198;6.570;2023-08-07T11:46:36;9.52;;;2.50;;
20908;SDS011;10614;53.198;6.570;2023-08-07T11:48:39;5.70;;;1.90;;
20908;SDS011;10614;53.198;6.570;2023-08-07T11:50:41;5.85;;;2.30;;
20908;SDS011;10614;53.198;6.570;2023-08-07T11:52:44;6.75;;;2.08;;
20908;SDS011;10614;53.198;6.570;2023-08-07T11:54:48;6.63;;;1.77;;
20908;SDS011;10614;53.198;6.570;2023-08-07T11:56:51;4.03;;;1.65;;
20908;SDS011;10614;53.198;6.570;2023-08-07T11:58:54;5.57;;;2.38;;
20908;SDS011;10614;53.198;6.570;2023-08-07T12:01:03;7.47;;;2.30;;
20908;SDS011;10614;53.198;6.570;2023-08-07T12:03:04;7.20;;;2.38;;
20908;SDS011;10614;53.198;6.570;2023-08-07T12:05:25;8.30;;;2.83;;
20908;SDS011;10614;53.198;6.570;2023-08-07T12:07:27;11.95;;;3.17;;
20908;SDS011;10614;53.198;6.570;2023-08-07T12:09:29;11.60;;;2.88;;
20908;SDS011;10614;53.198;6.570;2023-08-07T12:11:30;6.28;;;2.67;;
20908;SDS011;10614;53.198;6.570;2023-08-07T12:13:36;10.95;;;2.83;;
20908;SDS011;10614;53.198;6.570;2023-08-07T12:15:39;7.93;;;2.60;;
20908;SDS011;10614;53.198;6.570;2023-08-07T12:19:45;10.23;;;3.13;;
20908;SDS011;10614;53.198;6.570;2023-08-07T12:21:48;12.32;;;3.25;;
20908;SDS011;10614;53.198;6.570;2023-08-07T12:23:50;12.50;;;3.60;;
20908;SDS011;10614;53.198;6.570;2023-08-07T12:25:52;11.77;;;3.22;;
20908;SDS011;10614;53.198;6.570;2023-08-07T12:27:54;10.32;;;3.60;;
20908;SDS011;10614;53.198;6.570;2023-08-07T12:29:56;9.20;;;3.05;;
20908;SDS011;10614;53.198;6.570;2023-08-07T12:31:59;9.63;;;3.20;;
20908;SDS011;10614;53.198;6.570;2023-08-07T12:34:02;16.40;;;3.63;;
20908;SDS011;10614;53.198;6.570;2023-08-07T12:36:04;11.30;;;3.95;;
20908;SDS011;10614;53.198;6.570;2023-08-07T12:38:08;12.75;;;3.65;;
20908;SDS011;10614;53.198;6.570;2023-08-07T12:40:14;11.02;;;3.20;;
20908;SDS011;10614;53.198;6.570;2023-08-07T12:42:20;13.40;;;3.95;;
20908;SDS011;10614;53.198;6.570;2023-08-07T12:44:22;8.32;;;3.13;;
20908;SDS011;10614;53.198;6.570;2023-08-07T12:46:24;8.07;;;3.22;;
20908;SDS011;10614;53.198;6.570;2023-08-07T12:48:27;10.00;;;3.45;;
20908;SDS011;10614;53.198;6.570;2023-08-07T12:50:29;12.45;;;2.88;;
20908;SDS011;10614;53.198;6.570;2023-08-07T12:52:31;8.90;;;2.60;;
20908;SDS011;10614;53.198;6.570;2023-08-07T12:54:33;11.38;;;2.70;;
20908;SDS011;10614;53.198;6.570;2023-08-07T12:56:35;9.02;;;2.70;;
20908;SDS011;10614;53.198;6.570;2023-08-07T12:58:40;10.85;;;2.85;;
20908;SDS011;10614;53.198;6.570;2023-08-07T13:00:45;9.07;;;3.38;;
20908;SDS011;10614;53.198;6.570;2023-08-07T13:02:50;7.55;;;2.90;;
20908;SDS011;10614;53.198;6.570;2023-08-07T13:04:56;8.82;;;2.88;;
20908;SDS011;10614;53.198;6.570;2023-08-07T13:07:02;8.70;;;2.40;;
20908;SDS011;10614;53.198;6.570;2023-08-07T13:09:08;10.23;;;2.72;;
20908;SDS011;10614;53.198;6.570;2023-08-07T13:11:14;18.52;;;3.28;;
20908;SDS011;10614;53.198;6.570;2023-08-07T13:13:19;8.15;;;2.85;;
20908;SDS011;10614;53.198;6.570;2023-08-07T13:15:23;12.17;;;2.90;;
20908;SDS011;10614;53.198;6.570;2023-08-07T13:17:30;8.65;;;2.90;;
20908;SDS011;10614;53.198;6.570;2023-08-07T13:19:36;11.57;;;3.17;;
20908;SDS011;10614;53.198;6.570;2023-08-07T13:21:43;14.05;;;3.70;;
20908;SDS011;10614;53.198;6.570;2023-08-07T13:23:47;10.13;;;3.05;;
20908;SDS011;10614;53.198;6.570;2023-08-07T13:25:50;11.02;;;3.40;;
20908;SDS011;10614;53.198;6.570;2023-08-07T13:27:53;11.75;;;3.10;;
20908;SDS011;10614;53.198;6.570;2023-08-07T13:29:56;13.88;;;3.60;;
20908;SDS011;10614;53.198;6.570;2023-08-07T13:31:58;9.55;;;2.95;;
20908;SDS011;10614;53.198;6.570;2023-08-07T13:34:00;11.27;;;3.42;;
20908;SDS011;10614;53.198;6.570;2023-08-07T13:36:07;9.65;;;3.05;;
20908;SDS011;10614;53.198;6.570;2023-08-07T13:38:10;10.48;;;3.22;;
20908;SDS011;10614;53.198;6.570;2023-08-07T13:40:13;10.98;;;3.40;;
20908;SDS011;10614;53.198;6.570;2023-08-07T13:42:15;10.07;;;3.25;;
20908;SDS011;10614;53.198;6.570;2023-08-07T13:44:16;13.48;;;3.15;;
20908;SDS011;10614;53.198;6.570;2023-08-07T13:46:18;8.77;;;3.38;;
20908;SDS011;10614;53.198;6.570;2023-08-07T13:48:20;17.70;;;4.05;;
20908;SDS011;10614;53.198;6.570;2023-08-07T13:50:22;15.48;;;3.80;;
20908;SDS011;10614;53.198;6.570;2023-08-07T13:52:24;13.00;;;3.45;;
20908;SDS011;10614;53.198;6.570;2023-08-07T13:54:32;15.23;;;3.92;;
20908;SDS011;10614;53.198;6.570;2023-08-07T13:56:49;14.23;;;3.15;;
20908;SDS011;10614;53.198;6.570;2023-08-07T13:59:19;11.85;;;3.65;;
20908;SDS011;10614;53.198;6.570;2023-08-07T14:01:24;13.38;;;3.00;;
20908;SDS011;10614;53.198;6.570;2023-08-07T14:03:36;15.05;;;3.45;;
20908;SDS011;10614;53.198;6.570;2023-08-07T14:05:45;11.95;;;3.10;;
20908;SDS011;10614;53.198;6.570;2023-08-07T14:08:01;13.63;;;3.00;;
20908;SDS011;10614;53.198;6.570;2023-08-07T14:10:26;15.75;;;3.42;;
20908;SDS011;10614;53.198;6.570;2023-08-07T14:12:32;10.70;;;3.13;;
20908;SDS011;10614;53.198;6.570;2023-08-07T14:14:37;7.80;;;2.75;;
20908;SDS011;10614;53.198;6.570;2023-08-07T14:16:42;12.65;;;3.40;;
20908;SDS011;10614;53.198;6.570;2023-08-07T14:18:49;16.33;;;3.28;;
20908;SDS011;10614;53.198;6.570;2023-08-07T14:20:57;12.73;;;3.00;;
20908;SDS011;10614;53.198;6.570;2023-08-07T14:23:03;12.90;;;3.45;;
20908;SDS011;10614;53.198;6.570;2023-08-07T14:27:44;15.35;;;3.03;;
20908;SDS011;10614;53.198;6.570;2023-08-07T14:29:52;9.45;;;2.88;;
20908;SDS011;10614;53.198;6.570;2023-08-07T14:31:55;10.18;;;2.40;;
20908;SDS011;10614;53.198;6.570;2023-08-07T14:34:01;10.07;;;3.20;;
20908;SDS011;10614;53.198;6.570;2023-08-07T14:36:05;11.80;;;2.65;;
20908;SDS011;10614;53.198;6.570;2023-08-07T14:38:15;11.20;;;3.20;;
20908;SDS011;10614;53.198;6.570;2023-08-07T14:40:35;10.15;;;2.97;;
20908;SDS011;10614;53.198;6.570;2023-08-07T14:42:41;8.63;;;2.42;;
20908;SDS011;10614;53.198;6.570;2023-08-07T14:45:21;11.18;;;2.20;;